sensor_id;sensor_type;location;lat;lon;timestamp;temperature;humidity
36458;DHT22;22480;50.546;12.292;2022-07-29T00:01:35;14.00;94.60
36458;DHT22;22480;50.546;12.292;2022-07-29T00:04:01;14.00;94.40
36458;DHT22;22480;50.546;12.292;2022-07-29T00:06:27;14.00;94.20
36458;DHT22;22480;50.546;12.292;2022-07-29T00:08:52;14.00;94.10
36458;DHT22;22480;50.546;12.292;2022-07-29T00:11:18;14.10;93.90
36458;DHT22;22480;50.546;12.292;2022-07-29T00:13:44;14.20;93.90
36458;DHT22;22480;50.546;12.292;2022-07-29T00:16:09;14.30;93.90
36458;DHT22;22480;50.546;12.292;2022-07-29T00:18:35;14.30;93.70
36458;DHT22;22480;50.546;12.292;2022-07-29T00:21:01;14.20;93.80
36458;DHT22;22480;50.546;12.292;2022-07-29T00:23:26;14.20;93.90
36458;DHT22;22480;50.546;12.292;2022-07-29T00:25:52;14.20;94.30
36458;DHT22;22480;50.546;12.292;2022-07-29T00:28:17;14.20;94.50
36458;DHT22;22480;50.546;12.292;2022-07-29T00:30:43;14.20;94.60
36458;DHT22;22480;50.546;12.292;2022-07-29T00:33:09;14.20;95.70
36458;DHT22;22480;50.546;12.292;2022-07-29T00:35:35;14.30;95.90
36458;DHT22;22480;50.546;12.292;2022-07-29T00:38:15;14.40;95.40
36458;DHT22;22480;50.546;12.292;2022-07-29T00:40:41;14.40;96.00
36458;DHT22;22480;50.546;12.292;2022-07-29T00:43:07;14.40;96.70
36458;DHT22;22480;50.546;12.292;2022-07-29T00:45:33;14.40;96.90
36458;DHT22;22480;50.546;12.292;2022-07-29T00:47:59;14.30;97.60
36458;DHT22;22480;50.546;12.292;2022-07-29T00:50:25;14.30;98.00
36458;DHT22;22480;50.546;12.292;2022-07-29T00:52:51;14.30;99.00
36458;DHT22;22480;50.546;12.292;2022-07-29T00:55:17;14.20;99.40
36458;DHT22;22480;50.546;12.292;2022-07-29T00:57:44;14.20;99.90
36458;DHT22;22480;50.546;12.292;2022-07-29T01:00:13;14.10;99.90
36458;DHT22;22480;50.546;12.292;2022-07-29T01:02:39;14.00;99.90
36458;DHT22;22480;50.546;12.292;2022-07-29T01:05:06;14.00;99.90
36458;DHT22;22480;50.546;12.292;2022-07-29T01:07:34;13.90;99.90
36458;DHT22;22480;50.546;12.292;2022-07-29T01:10:02;13.90;99.90
36458;DHT22;22480;50.546;12.292;2022-07-29T01:12:29;13.90;99.90
36458;DHT22;22480;50.546;12.292;2022-07-29T01:14:58;13.80;99.90
36458;DHT22;22480;50.546;12.292;2022-07-29T01:17:28;13.70;99.90
36458;DHT22;22480;50.546;12.292;2022-07-29T01:20:51;13.60;99.90
36458;DHT22;22480;50.546;12.292;2022-07-29T01:28:35;13.50;99.90
36458;DHT22;22480;50.546;12.292;2022-07-29T01:31:04;13.50;99.90
36458;DHT22;22480;50.546;12.292;2022-07-29T01:33:33;13.50;99.90
36458;DHT22;22480;50.546;12.292;2022-07-29T01:36:22;13.50;99.90
36458;DHT22;22480;50.546;12.292;2022-07-29T01:42:05;13.60;99.90
36458;DHT22;22480;50.546;12.292;2022-07-29T01:44:35;13.60;99.90
36458;DHT22;22480;50.546;12.292;2022-07-29T01:47:09;13.60;99.90
36458;DHT22;22480;50.546;12.292;2022-07-29T01:49:42;13.50;99.90
36458;DHT22;22480;50.546;12.292;2022-07-29T01:52:19;13.50;99.90
36458;DHT22;22480;50.546;12.292;2022-07-29T01:54:56;13.60;99.90
36458;DHT22;22480;50.546;12.292;2022-07-29T01:57:28;13.60;99.90
36458;DHT22;22480;50.546;12.292;2022-07-29T01:59:56;13.70;99.90
36458;DHT22;22480;50.546;12.292;2022-07-29T02:02:23;13.80;99.90
36458;DHT22;22480;50.546;12.292;2022-07-29T02:04:50;13.80;99.90
36458;DHT22;22480;50.546;12.292;2022-07-29T02:07:20;13.80;99.90
36458;DHT22;22480;50.546;12.292;2022-07-29T02:09:47;13.80;99.90
36458;DHT22;22480;50.546;12.292;2022-07-29T02:12:16;13.80;99.90
36458;DHT22;22480;50.546;12.292;2022-07-29T02:14:47;13.80;99.90
36458;DHT22;22480;50.546;12.292;2022-07-29T02:17:13;13.80;99.90
36458;DHT22;22480;50.546;12.292;2022-07-29T02:19:43;13.80;99.90
36458;DHT22;22480;50.546;12.292;2022-07-29T02:22:11;13.80;99.90
36458;DHT22;22480;50.546;12.292;2022-07-29T02:24:38;13.80;99.90
36458;DHT22;22480;50.546;12.292;2022-07-29T02:27:07;13.80;99.90
36458;DHT22;22480;50.546;12.292;2022-07-29T02:29:34;13.80;99.90
36458;DHT22;22480;50.546;12.292;2022-07-29T02:32:02;13.70;99.90
36458;DHT22;22480;50.546;12.292;2022-07-29T02:34:29;13.80;99.90
36458;DHT22;22480;50.546;12.292;2022-07-29T02:36:55;13.70;99.90
36458;DHT22;22480;50.546;12.292;2022-07-29T02:39:23;13.70;99.90
36458;DHT22;22480;50.546;12.292;2022-07-29T02:41:58;13.60;99.90
36458;DHT22;22480;50.546;12.292;2022-07-29T02:44:25;13.60;99.90
36458;DHT22;22480;50.546;12.292;2022-07-29T02:49:45;13.70;99.90
36458;DHT22;22480;50.546;12.292;2022-07-29T02:52:33;13.60;99.90
36458;DHT22;22480;50.546;12.292;2022-07-29T02:57:36;13.60;99.90
36458;DHT22;22480;50.546;12.292;2022-07-29T03:00:07;13.60;99.90
36458;DHT22;22480;50.546;12.292;2022-07-29T03:02:36;13.60;99.90
36458;DHT22;22480;50.546;12.292;2022-07-29T03:05:04;13.60;99.90
36458;DHT22;22480;50.546;12.292;2022-07-29T03:07:32;13.50;99.90
36458;DHT22;22480;50.546;12.292;2022-07-29T03:09:59;13.60;99.90
36458;DHT22;22480;50.546;12.292;2022-07-29T03:12:25;13.60;99.90
36458;DHT22;22480;50.546;12.292;2022-07-29T03:14:52;13.70;99.90
36458;DHT22;22480;50.546;12.292;2022-07-29T03:17:18;13.70;99.90
36458;DHT22;22480;50.546;12.292;2022-07-29T03:19:45;13.70;99.90
36458;DHT22;22480;50.546;12.292;2022-07-29T03:22:11;13.70;99.90
36458;DHT22;22480;50.546;12.292;2022-07-29T03:24:37;13.60;99.90
36458;DHT22;22480;50.546;12.292;2022-07-29T03:27:04;13.60;99.90
36458;DHT22;22480;50.546;12.292;2022-07-29T03:29:31;13.60;99.90
36458;DHT22;22480;50.546;12.292;2022-07-29T03:31:56;13.50;99.90
36458;DHT22;22480;50.546;12.292;2022-07-29T03:34:22;13.40;99.90
36458;DHT22;22480;50.546;12.292;2022-07-29T03:36:49;13.30;99.90
36458;DHT22;22480;50.546;12.292;2022-07-29T03:39:21;13.20;99.90
36458;DHT22;22480;50.546;12.292;2022-07-29T03:41:49;13.20;99.90
36458;DHT22;22480;50.546;12.292;2022-07-29T03:44:17;13.10;99.90
36458;DHT22;22480;50.546;12.292;2022-07-29T03:46:44;13.10;99.90
36458;DHT22;22480;50.546;12.292;2022-07-29T03:49:11;13.00;99.90
36458;DHT22;22480;50.546;12.292;2022-07-29T03:51:39;12.90;99.90
36458;DHT22;22480;50.546;12.292;2022-07-29T03:54:05;13.00;99.90
36458;DHT22;22480;50.546;12.292;2022-07-29T03:56:34;13.00;99.90
36458;DHT22;22480;50.546;12.292;2022-07-29T03:59:02;13.00;99.90
36458;DHT22;22480;50.546;12.292;2022-07-29T04:01:29;12.90;99.90
36458;DHT22;22480;50.546;12.292;2022-07-29T04:03:57;12.90;99.90
36458;DHT22;22480;50.546;12.292;2022-07-29T04:06:23;12.80;99.90
36458;DHT22;22480;50.546;12.292;2022-07-29T04:08:51;12.80;99.90
36458;DHT22;22480;50.546;12.292;2022-07-29T04:11:16;12.90;99.90
36458;DHT22;22480;50.546;12.292;2022-07-29T04:13:42;12.90;99.90
36458;DHT22;22480;50.546;12.292;2022-07-29T04:16:08;12.90;99.90
36458;DHT22;22480;50.546;12.292;2022-07-29T04:18:33;13.00;99.90
36458;DHT22;22480;50.546;12.292;2022-07-29T04:20:59;13.10;99.90
36458;DHT22;22480;50.546;12.292;2022-07-29T04:23:27;13.20;99.90
36458;DHT22;22480;50.546;12.292;2022-07-29T04:25:52;13.40;99.90
36458;DHT22;22480;50.546;12.292;2022-07-29T04:28:18;13.60;99.90
36458;DHT22;22480;50.546;12.292;2022-07-29T04:30:44;13.80;99.90
36458;DHT22;22480;50.546;12.292;2022-07-29T04:33:09;14.00;99.90
36458;DHT22;22480;50.546;12.292;2022-07-29T04:35:38;14.20;99.90
36458;DHT22;22480;50.546;12.292;2022-07-29T04:38:05;14.30;99.90
36458;DHT22;22480;50.546;12.292;2022-07-29T04:40:31;14.50;99.90
36458;DHT22;22480;50.546;12.292;2022-07-29T04:42:59;14.60;99.90
36458;DHT22;22480;50.546;12.292;2022-07-29T04:45:25;14.80;99.90
36458;DHT22;22480;50.546;12.292;2022-07-29T04:47:50;14.90;99.90
36458;DHT22;22480;50.546;12.292;2022-07-29T04:50:16;15.00;99.90
36458;DHT22;22480;50.546;12.292;2022-07-29T04:52:43;15.00;99.90
36458;DHT22;22480;50.546;12.292;2022-07-29T04:55:09;15.10;99.90
36458;DHT22;22480;50.546;12.292;2022-07-29T04:57:35;15.10;99.90
36458;DHT22;22480;50.546;12.292;2022-07-29T05:00:01;15.10;99.90
36458;DHT22;22480;50.546;12.292;2022-07-29T05:02:27;15.10;99.90
36458;DHT22;22480;50.546;12.292;2022-07-29T05:04:52;15.20;99.90
36458;DHT22;22480;50.546;12.292;2022-07-29T05:07:18;15.30;99.90
36458;DHT22;22480;50.546;12.292;2022-07-29T05:09:44;15.40;99.90
36458;DHT22;22480;50.546;12.292;2022-07-29T05:12:09;15.50;99.90
36458;DHT22;22480;50.546;12.292;2022-07-29T05:14:36;15.70;99.90
36458;DHT22;22480;50.546;12.292;2022-07-29T05:17:01;15.90;99.90
36458;DHT22;22480;50.546;12.292;2022-07-29T05:19:27;16.00;99.90
36458;DHT22;22480;50.546;12.292;2022-07-29T05:21:53;16.20;99.90
36458;DHT22;22480;50.546;12.292;2022-07-29T05:24:18;16.30;99.90
36458;DHT22;22480;50.546;12.292;2022-07-29T05:26:44;16.40;99.90
36458;DHT22;22480;50.546;12.292;2022-07-29T05:29:10;16.50;99.90
36458;DHT22;22480;50.546;12.292;2022-07-29T05:31:36;16.60;99.90
36458;DHT22;22480;50.546;12.292;2022-07-29T05:34:02;16.60;99.90
36458;DHT22;22480;50.546;12.292;2022-07-29T05:36:28;16.70;99.90
36458;DHT22;22480;50.546;12.292;2022-07-29T05:38:53;16.80;99.90
36458;DHT22;22480;50.546;12.292;2022-07-29T05:41:19;17.00;99.90
36458;DHT22;22480;50.546;12.292;2022-07-29T05:43:45;17.10;99.90
36458;DHT22;22480;50.546;12.292;2022-07-29T05:46:10;17.30;99.90
36458;DHT22;22480;50.546;12.292;2022-07-29T05:48:36;17.40;99.90
36458;DHT22;22480;50.546;12.292;2022-07-29T05:51:02;17.50;99.90
36458;DHT22;22480;50.546;12.292;2022-07-29T05:53:28;17.60;99.90
36458;DHT22;22480;50.546;12.292;2022-07-29T05:55:53;17.80;99.90
36458;DHT22;22480;50.546;12.292;2022-07-29T05:58:20;17.80;99.90
36458;DHT22;22480;50.546;12.292;2022-07-29T06:00:46;17.90;99.90
36458;DHT22;22480;50.546;12.292;2022-07-29T06:03:12;17.90;99.40
36458;DHT22;22480;50.546;12.292;2022-07-29T06:05:38;17.90;98.40
36458;DHT22;22480;50.546;12.292;2022-07-29T06:08:04;17.80;97.80
36458;DHT22;22480;50.546;12.292;2022-07-29T06:10:34;17.80;98.80
36458;DHT22;22480;50.546;12.292;2022-07-29T06:12:59;17.90;98.80
36458;DHT22;22480;50.546;12.292;2022-07-29T06:15:25;18.10;98.60
36458;DHT22;22480;50.546;12.292;2022-07-29T06:17:51;18.20;98.40
36458;DHT22;22480;50.546;12.292;2022-07-29T06:20:18;18.40;98.50
36458;DHT22;22480;50.546;12.292;2022-07-29T06:22:44;18.70;99.30
36458;DHT22;22480;50.546;12.292;2022-07-29T06:25:09;19.00;97.20
36458;DHT22;22480;50.546;12.292;2022-07-29T06:27:35;19.10;96.10
36458;DHT22;22480;50.546;12.292;2022-07-29T06:30:01;19.20;95.50
36458;DHT22;22480;50.546;12.292;2022-07-29T06:32:27;19.40;93.80
36458;DHT22;22480;50.546;12.292;2022-07-29T06:34:53;19.50;94.00
36458;DHT22;22480;50.546;12.292;2022-07-29T06:37:18;19.80;94.10
36458;DHT22;22480;50.546;12.292;2022-07-29T06:39:44;19.90;94.10
36458;DHT22;22480;50.546;12.292;2022-07-29T06:42:10;20.00;92.50
36458;DHT22;22480;50.546;12.292;2022-07-29T06:44:35;19.90;92.40
36458;DHT22;22480;50.546;12.292;2022-07-29T06:47:02;19.80;93.10
36458;DHT22;22480;50.546;12.292;2022-07-29T06:49:27;19.80;93.10
36458;DHT22;22480;50.546;12.292;2022-07-29T06:51:54;20.00;93.60
36458;DHT22;22480;50.546;12.292;2022-07-29T06:54:20;20.20;92.70
36458;DHT22;22480;50.546;12.292;2022-07-29T06:56:47;20.50;92.70
36458;DHT22;22480;50.546;12.292;2022-07-29T06:59:13;20.70;92.00
36458;DHT22;22480;50.546;12.292;2022-07-29T07:01:40;21.00;90.30
36458;DHT22;22480;50.546;12.292;2022-07-29T07:04:06;21.50;87.50
36458;DHT22;22480;50.546;12.292;2022-07-29T07:06:34;22.10;85.80
36458;DHT22;22480;50.546;12.292;2022-07-29T07:09:00;22.90;80.80
36458;DHT22;22480;50.546;12.292;2022-07-29T07:11:26;23.60;79.50
36458;DHT22;22480;50.546;12.292;2022-07-29T07:13:51;24.30;75.80
36458;DHT22;22480;50.546;12.292;2022-07-29T07:16:17;24.90;71.00
36458;DHT22;22480;50.546;12.292;2022-07-29T07:18:43;25.10;69.40
36458;DHT22;22480;50.546;12.292;2022-07-29T07:21:10;24.70;67.10
36458;DHT22;22480;50.546;12.292;2022-07-29T07:23:36;24.40;68.60
36458;DHT22;22480;50.546;12.292;2022-07-29T07:26:02;24.00;66.60
36458;DHT22;22480;50.546;12.292;2022-07-29T07:28:28;23.30;67.50
36458;DHT22;22480;50.546;12.292;2022-07-29T07:30:54;23.30;69.90
36458;DHT22;22480;50.546;12.292;2022-07-29T07:33:20;23.40;70.20
36458;DHT22;22480;50.546;12.292;2022-07-29T07:35:46;23.70;67.30
36458;DHT22;22480;50.546;12.292;2022-07-29T07:38:12;24.30;66.60
36458;DHT22;22480;50.546;12.292;2022-07-29T07:40:38;24.40;65.60
36458;DHT22;22480;50.546;12.292;2022-07-29T07:43:03;25.00;66.30
36458;DHT22;22480;50.546;12.292;2022-07-29T07:45:29;25.30;63.40
36458;DHT22;22480;50.546;12.292;2022-07-29T07:47:58;25.40;64.50
36458;DHT22;22480;50.546;12.292;2022-07-29T07:50:23;25.50;64.80
36458;DHT22;22480;50.546;12.292;2022-07-29T07:52:52;25.40;65.30
36458;DHT22;22480;50.546;12.292;2022-07-29T07:55:19;25.60;65.40
36458;DHT22;22480;50.546;12.292;2022-07-29T07:57:45;25.60;63.20
36458;DHT22;22480;50.546;12.292;2022-07-29T08:00:12;25.50;64.40
36458;DHT22;22480;50.546;12.292;2022-07-29T08:02:39;25.50;64.30
36458;DHT22;22480;50.546;12.292;2022-07-29T08:05:06;25.80;64.50
36458;DHT22;22480;50.546;12.292;2022-07-29T08:07:33;25.90;62.60
36458;DHT22;22480;50.546;12.292;2022-07-29T08:09:58;26.00;62.80
36458;DHT22;22480;50.546;12.292;2022-07-29T08:12:24;26.50;61.60
36458;DHT22;22480;50.546;12.292;2022-07-29T08:14:50;26.70;62.20
36458;DHT22;22480;50.546;12.292;2022-07-29T08:17:15;27.00;61.10
36458;DHT22;22480;50.546;12.292;2022-07-29T08:19:41;27.30;60.70
36458;DHT22;22480;50.546;12.292;2022-07-29T08:22:07;27.90;60.80
36458;DHT22;22480;50.546;12.292;2022-07-29T08:24:32;28.40;58.20
36458;DHT22;22480;50.546;12.292;2022-07-29T08:27:18;28.90;57.80
36458;DHT22;22480;50.546;12.292;2022-07-29T08:29:44;28.70;56.80
36458;DHT22;22480;50.546;12.292;2022-07-29T08:32:10;28.70;55.60
36458;DHT22;22480;50.546;12.292;2022-07-29T08:34:35;28.80;57.00
36458;DHT22;22480;50.546;12.292;2022-07-29T08:37:01;28.80;57.00
36458;DHT22;22480;50.546;12.292;2022-07-29T08:39:27;29.00;56.30
36458;DHT22;22480;50.546;12.292;2022-07-29T08:41:52;28.90;55.60
36458;DHT22;22480;50.546;12.292;2022-07-29T08:44:20;28.80;55.40
36458;DHT22;22480;50.546;12.292;2022-07-29T08:46:47;28.80;57.30
36458;DHT22;22480;50.546;12.292;2022-07-29T08:49:13;28.90;57.70
36458;DHT22;22480;50.546;12.292;2022-07-29T08:51:40;28.70;57.40
36458;DHT22;22480;50.546;12.292;2022-07-29T08:54:08;29.00;57.50
36458;DHT22;22480;50.546;12.292;2022-07-29T08:56:34;29.30;56.20
36458;DHT22;22480;50.546;12.292;2022-07-29T08:59:03;29.50;55.30
36458;DHT22;22480;50.546;12.292;2022-07-29T09:01:30;29.70;54.90
36458;DHT22;22480;50.546;12.292;2022-07-29T09:03:59;29.60;55.60
36458;DHT22;22480;50.546;12.292;2022-07-29T09:06:30;29.50;56.20
36458;DHT22;22480;50.546;12.292;2022-07-29T09:08:59;29.90;55.70
36458;DHT22;22480;50.546;12.292;2022-07-29T09:11:25;29.40;54.70
36458;DHT22;22480;50.546;12.292;2022-07-29T09:13:51;29.80;55.50
36458;DHT22;22480;50.546;12.292;2022-07-29T09:16:17;30.20;54.60
36458;DHT22;22480;50.546;12.292;2022-07-29T09:18:45;30.20;54.60
36458;DHT22;22480;50.546;12.292;2022-07-29T09:21:13;30.40;54.90
36458;DHT22;22480;50.546;12.292;2022-07-29T09:24:10;31.10;54.40
36458;DHT22;22480;50.546;12.292;2022-07-29T09:26:39;31.70;52.80
36458;DHT22;22480;50.546;12.292;2022-07-29T09:29:09;32.10;51.70
36458;DHT22;22480;50.546;12.292;2022-07-29T09:31:38;32.20;51.60
36458;DHT22;22480;50.546;12.292;2022-07-29T09:34:05;32.40;52.30
36458;DHT22;22480;50.546;12.292;2022-07-29T09:36:35;32.40;51.20
36458;DHT22;22480;50.546;12.292;2022-07-29T09:39:03;32.70;51.60
36458;DHT22;22480;50.546;12.292;2022-07-29T09:41:29;32.30;51.70
36458;DHT22;22480;50.546;12.292;2022-07-29T09:44:08;32.20;51.60
36458;DHT22;22480;50.546;12.292;2022-07-29T09:46:34;31.30;52.10
36458;DHT22;22480;50.546;12.292;2022-07-29T09:49:12;30.80;54.40
36458;DHT22;22480;50.546;12.292;2022-07-29T09:51:38;31.10;53.80
36458;DHT22;22480;50.546;12.292;2022-07-29T09:54:24;31.30;52.50
36458;DHT22;22480;50.546;12.292;2022-07-29T09:56:54;31.30;53.20
36458;DHT22;22480;50.546;12.292;2022-07-29T09:59:20;31.40;52.20
36458;DHT22;22480;50.546;12.292;2022-07-29T10:01:48;31.30;53.50
36458;DHT22;22480;50.546;12.292;2022-07-29T10:04:15;30.90;53.30
36458;DHT22;22480;50.546;12.292;2022-07-29T10:09:23;31.10;54.40
36458;DHT22;22480;50.546;12.292;2022-07-29T10:12:09;32.20;54.60
36458;DHT22;22480;50.546;12.292;2022-07-29T10:14:37;33.30;53.30
36458;DHT22;22480;50.546;12.292;2022-07-29T10:17:03;33.80;50.20
36458;DHT22;22480;50.546;12.292;2022-07-29T10:19:30;34.40;50.70
36458;DHT22;22480;50.546;12.292;2022-07-29T10:21:58;34.10;49.40
36458;DHT22;22480;50.546;12.292;2022-07-29T10:24:27;33.70;50.00
36458;DHT22;22480;50.546;12.292;2022-07-29T10:26:57;33.60;50.60
36458;DHT22;22480;50.546;12.292;2022-07-29T10:29:24;33.40;50.90
36458;DHT22;22480;50.546;12.292;2022-07-29T10:31:54;31.90;50.10
36458;DHT22;22480;50.546;12.292;2022-07-29T10:34:57;31.30;53.00
36458;DHT22;22480;50.546;12.292;2022-07-29T10:38:08;31.20;52.30
36458;DHT22;22480;50.546;12.292;2022-07-29T10:41:01;30.80;53.10
36458;DHT22;22480;50.546;12.292;2022-07-29T10:43:51;31.20;52.60
36458;DHT22;22480;50.546;12.292;2022-07-29T10:46:17;31.10;54.00
36458;DHT22;22480;50.546;12.292;2022-07-29T10:49:12;31.10;53.40
36458;DHT22;22480;50.546;12.292;2022-07-29T10:51:56;31.40;54.30
36458;DHT22;22480;50.546;12.292;2022-07-29T10:57:28;30.20;54.10
36458;DHT22;22480;50.546;12.292;2022-07-29T11:05:06;28.60;56.20
36458;DHT22;22480;50.546;12.292;2022-07-29T11:07:34;28.40;58.20
36458;DHT22;22480;50.546;12.292;2022-07-29T11:15:14;28.10;58.60
36458;DHT22;22480;50.546;12.292;2022-07-29T11:23:27;27.90;60.30
36458;DHT22;22480;50.546;12.292;2022-07-29T11:31:31;30.10;55.30
36458;DHT22;22480;50.546;12.292;2022-07-29T11:34:30;30.90;54.80
36458;DHT22;22480;50.546;12.292;2022-07-29T11:47:38;29.40;56.00
36458;DHT22;22480;50.546;12.292;2022-07-29T11:50:07;29.00;56.30
36458;DHT22;22480;50.546;12.292;2022-07-29T11:52:39;29.00;56.10
36458;DHT22;22480;50.546;12.292;2022-07-29T11:55:19;28.80;57.00
36458;DHT22;22480;50.546;12.292;2022-07-29T11:57:56;28.70;57.80
36458;DHT22;22480;50.546;12.292;2022-07-29T12:02:51;28.30;57.30
36458;DHT22;22480;50.546;12.292;2022-07-29T12:05:18;28.30;57.70
36458;DHT22;22480;50.546;12.292;2022-07-29T12:07:44;28.30;57.90
36458;DHT22;22480;50.546;12.292;2022-07-29T12:10:09;28.40;57.60
36458;DHT22;22480;50.546;12.292;2022-07-29T12:12:35;28.50;58.70
36458;DHT22;22480;50.546;12.292;2022-07-29T12:15:18;28.60;58.90
36458;DHT22;22480;50.546;12.292;2022-07-29T12:17:47;29.70;55.60
36458;DHT22;22480;50.546;12.292;2022-07-29T12:20:28;31.00;53.90
36458;DHT22;22480;50.546;12.292;2022-07-29T12:22:54;31.50;53.70
36458;DHT22;22480;50.546;12.292;2022-07-29T12:25:21;32.00;53.00
36458;DHT22;22480;50.546;12.292;2022-07-29T12:27:57;31.90;52.90
36458;DHT22;22480;50.546;12.292;2022-07-29T12:30:23;31.80;54.00
36458;DHT22;22480;50.546;12.292;2022-07-29T12:32:59;31.90;54.40
36458;DHT22;22480;50.546;12.292;2022-07-29T12:35:24;31.10;53.00
36458;DHT22;22480;50.546;12.292;2022-07-29T12:37:51;30.40;54.00
36458;DHT22;22480;50.546;12.292;2022-07-29T12:40:18;29.60;54.20
36458;DHT22;22480;50.546;12.292;2022-07-29T12:43:05;29.10;55.90
36458;DHT22;22480;50.546;12.292;2022-07-29T12:45:32;28.80;55.80
36458;DHT22;22480;50.546;12.292;2022-07-29T12:47:58;28.70;55.70
36458;DHT22;22480;50.546;12.292;2022-07-29T12:50:24;28.90;56.40
36458;DHT22;22480;50.546;12.292;2022-07-29T12:52:50;29.30;55.90
36458;DHT22;22480;50.546;12.292;2022-07-29T12:55:40;29.40;54.90
36458;DHT22;22480;50.546;12.292;2022-07-29T12:58:06;29.40;56.00
36458;DHT22;22480;50.546;12.292;2022-07-29T13:00:32;29.40;58.70
36458;DHT22;22480;50.546;12.292;2022-07-29T13:02:59;29.40;57.10
36458;DHT22;22480;50.546;12.292;2022-07-29T13:05:39;29.20;56.40
36458;DHT22;22480;50.546;12.292;2022-07-29T13:08:16;28.80;56.50
36458;DHT22;22480;50.546;12.292;2022-07-29T13:10:45;28.60;57.40
36458;DHT22;22480;50.546;12.292;2022-07-29T13:13:13;28.50;58.30
36458;DHT22;22480;50.546;12.292;2022-07-29T13:15:42;28.40;58.20
36458;DHT22;22480;50.546;12.292;2022-07-29T13:18:28;28.30;58.40
36458;DHT22;22480;50.546;12.292;2022-07-29T13:20:55;28.00;59.00
36458;DHT22;22480;50.546;12.292;2022-07-29T13:23:21;27.80;59.10
36458;DHT22;22480;50.546;12.292;2022-07-29T13:25:46;27.60;60.10
36458;DHT22;22480;50.546;12.292;2022-07-29T13:28:12;27.30;60.60
36458;DHT22;22480;50.546;12.292;2022-07-29T13:30:40;27.20;61.00
36458;DHT22;22480;50.546;12.292;2022-07-29T13:33:06;26.60;61.40
36458;DHT22;22480;50.546;12.292;2022-07-29T13:35:32;25.50;63.10
36458;DHT22;22480;50.546;12.292;2022-07-29T13:37:58;24.10;75.10
36458;DHT22;22480;50.546;12.292;2022-07-29T13:40:23;21.30;95.40
36458;DHT22;22480;50.546;12.292;2022-07-29T13:42:49;19.20;99.90
36458;DHT22;22480;50.546;12.292;2022-07-29T13:45:15;18.00;99.90
36458;DHT22;22480;50.546;12.292;2022-07-29T13:47:41;17.30;99.90
36458;DHT22;22480;50.546;12.292;2022-07-29T13:50:08;16.80;99.90
36458;DHT22;22480;50.546;12.292;2022-07-29T13:52:35;16.50;99.90
36458;DHT22;22480;50.546;12.292;2022-07-29T13:55:01;16.20;99.90
36458;DHT22;22480;50.546;12.292;2022-07-29T13:57:28;16.10;99.90
36458;DHT22;22480;50.546;12.292;2022-07-29T13:59:54;16.00;99.90
36458;DHT22;22480;50.546;12.292;2022-07-29T14:02:20;16.00;99.90
36458;DHT22;22480;50.546;12.292;2022-07-29T14:04:46;16.00;99.90
36458;DHT22;22480;50.546;12.292;2022-07-29T14:07:11;15.90;99.90
36458;DHT22;22480;50.546;12.292;2022-07-29T14:09:37;15.90;99.90
36458;DHT22;22480;50.546;12.292;2022-07-29T14:12:03;15.90;99.90
36458;DHT22;22480;50.546;12.292;2022-07-29T14:14:29;15.90;99.90
36458;DHT22;22480;50.546;12.292;2022-07-29T14:16:56;15.90;99.90
36458;DHT22;22480;50.546;12.292;2022-07-29T14:19:22;16.00;99.90
36458;DHT22;22480;50.546;12.292;2022-07-29T14:21:48;16.10;99.90
36458;DHT22;22480;50.546;12.292;2022-07-29T14:24:13;16.10;99.90
36458;DHT22;22480;50.546;12.292;2022-07-29T14:26:39;16.30;99.90
36458;DHT22;22480;50.546;12.292;2022-07-29T14:29:05;16.30;99.90
36458;DHT22;22480;50.546;12.292;2022-07-29T14:31:30;16.40;99.90
36458;DHT22;22480;50.546;12.292;2022-07-29T14:33:56;16.40;99.90
36458;DHT22;22480;50.546;12.292;2022-07-29T14:36:21;16.70;99.90
36458;DHT22;22480;50.546;12.292;2022-07-29T14:38:47;16.70;99.90
36458;DHT22;22480;50.546;12.292;2022-07-29T14:41:13;16.90;99.90
36458;DHT22;22480;50.546;12.292;2022-07-29T14:43:38;17.10;99.90
36458;DHT22;22480;50.546;12.292;2022-07-29T14:46:04;17.30;99.90
36458;DHT22;22480;50.546;12.292;2022-07-29T14:48:30;17.70;99.90
36458;DHT22;22480;50.546;12.292;2022-07-29T14:50:55;17.90;99.90
36458;DHT22;22480;50.546;12.292;2022-07-29T14:53:22;18.10;99.90
36458;DHT22;22480;50.546;12.292;2022-07-29T14:55:47;18.30;99.90
36458;DHT22;22480;50.546;12.292;2022-07-29T14:58:13;18.60;99.90
36458;DHT22;22480;50.546;12.292;2022-07-29T15:00:39;18.90;99.90
36458;DHT22;22480;50.546;12.292;2022-07-29T15:03:05;19.10;99.90
36458;DHT22;22480;50.546;12.292;2022-07-29T15:05:31;19.30;99.90
36458;DHT22;22480;50.546;12.292;2022-07-29T15:07:58;19.60;99.90
36458;DHT22;22480;50.546;12.292;2022-07-29T15:10:24;20.10;99.90
36458;DHT22;22480;50.546;12.292;2022-07-29T15:12:52;21.20;99.90
36458;DHT22;22480;50.546;12.292;2022-07-29T15:15:18;21.70;99.90
36458;DHT22;22480;50.546;12.292;2022-07-29T15:17:44;21.70;99.90
36458;DHT22;22480;50.546;12.292;2022-07-29T15:20:10;21.60;99.90
36458;DHT22;22480;50.546;12.292;2022-07-29T15:22:37;21.70;99.90
36458;DHT22;22480;50.546;12.292;2022-07-29T15:25:04;21.50;99.90
36458;DHT22;22480;50.546;12.292;2022-07-29T15:27:30;21.50;99.90
36458;DHT22;22480;50.546;12.292;2022-07-29T15:29:56;21.60;99.90
36458;DHT22;22480;50.546;12.292;2022-07-29T15:32:21;21.70;99.90
36458;DHT22;22480;50.546;12.292;2022-07-29T15:34:47;22.00;99.90
36458;DHT22;22480;50.546;12.292;2022-07-29T15:37:13;22.20;99.90
36458;DHT22;22480;50.546;12.292;2022-07-29T15:39:38;22.10;99.90
36458;DHT22;22480;50.546;12.292;2022-07-29T15:42:04;22.10;99.90
36458;DHT22;22480;50.546;12.292;2022-07-29T15:44:30;21.80;99.90
36458;DHT22;22480;50.546;12.292;2022-07-29T15:46:55;21.70;99.90
36458;DHT22;22480;50.546;12.292;2022-07-29T15:49:36;21.40;99.90
36458;DHT22;22480;50.546;12.292;2022-07-29T15:52:04;21.10;99.90
36458;DHT22;22480;50.546;12.292;2022-07-29T15:54:32;20.90;99.90
36458;DHT22;22480;50.546;12.292;2022-07-29T15:56:58;20.70;99.90
36458;DHT22;22480;50.546;12.292;2022-07-29T15:59:24;20.70;99.90
36458;DHT22;22480;50.546;12.292;2022-07-29T16:01:50;20.80;99.90
36458;DHT22;22480;50.546;12.292;2022-07-29T16:04:16;20.80;99.90
36458;DHT22;22480;50.546;12.292;2022-07-29T16:06:42;20.90;99.90
36458;DHT22;22480;50.546;12.292;2022-07-29T16:09:08;21.10;99.90
36458;DHT22;22480;50.546;12.292;2022-07-29T16:11:34;21.30;99.90
36458;DHT22;22480;50.546;12.292;2022-07-29T16:13:59;21.70;99.90
36458;DHT22;22480;50.546;12.292;2022-07-29T16:16:25;22.10;99.90